createdAt,value
2022-12-12T00:04:46.536Z,97965.41
2022-12-12T00:09:54.174Z,97956.75
2022-12-12T00:14:59.564Z,97963.97
2022-12-12T00:20:04.864Z,97967.63
2022-12-12T00:25:13.386Z,97963.75
2022-12-12T00:30:18.718Z,97960.88
2022-12-12T00:35:24.296Z,97959.81
2022-12-12T00:40:31.856Z,97951.38
2022-12-12T00:45:36.829Z,97954.38
2022-12-12T00:50:41.782Z,97953.28
2022-12-12T00:55:49.442Z,97970.19
2022-12-12T01:00:54.785Z,97971.31
2022-12-12T01:05:59.720Z,97963.28
2022-12-12T01:11:08.194Z,97957.25
2022-12-12T01:16:14.086Z,97950.00
2022-12-12T01:21:21.549Z,97957.72
2022-12-12T01:26:29.170Z,97960.75
2022-12-12T01:31:34.736Z,97967.50
2022-12-12T01:36:39.794Z,97969.00
2022-12-12T01:41:48.927Z,97958.25
2022-12-12T01:46:53.978Z,97960.09
2022-12-12T01:52:03.561Z,97975.38
2022-12-12T01:57:16.123Z,97971.09
2022-12-12T02:02:21.310Z,97969.09
2022-12-12T02:07:26.292Z,97970.47
2022-12-12T02:12:34.154Z,97976.81
2022-12-12T02:18:03.568Z,97970.34
2022-12-12T02:23:38.949Z,97963.25
2022-12-12T02:29:19.386Z,97963.44
2022-12-12T02:34:36.756Z,97960.44
2022-12-12T02:39:52.327Z,97965.78
2022-12-12T02:45:02.587Z,97960.66
2022-12-12T02:50:13.800Z,97958.75
2022-12-12T02:55:20.014Z,97963.47
2022-12-12T03:00:25.536Z,97959.66
2022-12-12T03:05:57.917Z,97961.91
2022-12-12T03:11:06.632Z,97962.19
2022-12-12T03:16:21.967Z,97961.25
2022-12-12T03:21:38.571Z,97956.03
2022-12-12T03:26:49.805Z,97961.56
2022-12-12T03:32:00.225Z,97960.59
2022-12-12T03:37:13.252Z,97964.16
2022-12-12T03:42:24.170Z,97951.53
2022-12-12T03:47:41.898Z,97954.00
2022-12-12T03:52:54.675Z,97950.03
2022-12-12T03:58:04.006Z,97955.94
2022-12-12T04:03:17.710Z,97962.75
2022-12-12T04:08:27.603Z,97955.59
2022-12-12T04:13:38.711Z,97960.03
2022-12-12T04:18:52.179Z,97961.06
2022-12-12T04:24:08.388Z,97963.31
2022-12-12T04:29:25.144Z,97963.41
2022-12-12T04:34:42.284Z,97967.59
2022-12-12T04:39:53.777Z,97971.78
2022-12-12T04:45:04.073Z,97966.88
2022-12-12T04:50:11.961Z,97973.38
2022-12-12T04:55:24.983Z,97972.50
2022-12-12T05:00:37.141Z,97967.06
2022-12-12T05:05:46.928Z,97970.50
2022-12-12T05:10:58.644Z,97972.31
2022-12-12T05:16:07.054Z,97980.44
2022-12-12T05:21:12.010Z,97977.31
2022-12-12T05:26:24.978Z,97987.78
2022-12-12T05:31:30.096Z,97983.84
2022-12-12T05:36:37.635Z,97993.66
2022-12-12T05:41:45.592Z,97990.34
2022-12-12T05:46:50.741Z,97995.47
2022-12-12T05:51:55.972Z,97992.00
2022-12-12T05:57:03.504Z,97996.75
2022-12-12T06:02:08.624Z,97995.16
2022-12-12T06:07:13.753Z,98002.97
2022-12-12T06:12:21.369Z,97997.84
2022-12-12T06:17:31.350Z,98007.41
2022-12-12T06:22:39.080Z,98001.69
2022-12-12T06:27:46.889Z,98007.16
2022-12-12T06:32:51.832Z,98014.84
2022-12-12T06:37:56.769Z,98027.47
2022-12-12T06:43:04.737Z,98024.09
2022-12-12T06:48:10.036Z,98032.28
2022-12-12T06:53:16.763Z,98029.03
2022-12-12T06:58:24.433Z,98037.47
2022-12-12T07:03:29.696Z,98042.69
2022-12-12T07:08:34.647Z,98045.09
2022-12-12T07:13:42.844Z,98047.78
2022-12-12T07:18:49.817Z,98047.91
2022-12-12T07:23:54.956Z,98060.81
2022-12-12T07:29:03.826Z,98053.75
2022-12-12T07:34:08.720Z,98052.09
2022-12-12T07:39:20.152Z,98067.09
2022-12-12T07:44:28.747Z,98066.34
2022-12-12T07:49:34.442Z,98070.03
2022-12-12T07:54:39.681Z,98075.34
2022-12-12T07:59:47.388Z,98074.00
2022-12-12T08:04:52.422Z,98081.72
2022-12-12T08:10:00.078Z,98086.84
2022-12-12T08:15:11.189Z,98088.09
2022-12-12T08:20:20.606Z,98092.75
2022-12-12T08:25:25.682Z,98097.34
2022-12-12T08:30:33.289Z,98094.50
2022-12-12T08:35:40.511Z,98084.75
2022-12-12T08:40:56.071Z,98094.72
2022-12-12T08:46:06.072Z,98104.28
2022-12-12T08:51:15.563Z,98103.41
2022-12-12T08:56:21.216Z,98114.84
2022-12-12T09:01:30.711Z,98118.16
2022-12-12T09:06:35.981Z,98124.34
2022-12-12T09:11:43.358Z,98122.97
2022-12-12T09:16:53.106Z,98133.50
2022-12-12T09:21:58.915Z,98132.19
2022-12-12T09:27:04.888Z,98131.63
2022-12-12T09:32:18.694Z,98128.16
2022-12-12T09:37:28.420Z,98133.50
2022-12-12T09:42:37.265Z,98139.91
2022-12-12T09:47:49.243Z,98134.19
2022-12-12T09:52:57.581Z,98150.75
2022-12-12T09:58:08.929Z,98142.22
2022-12-12T10:03:37.424Z,98150.13
2022-12-12T10:08:50.318Z,98149.69
2022-12-12T10:13:59.935Z,98158.16
2022-12-12T10:19:13.995Z,98160.81
2022-12-12T10:24:33.159Z,98157.41
2022-12-12T10:29:41.528Z,98156.94
2022-12-12T10:35:03.426Z,98163.25
2022-12-12T10:40:49.440Z,98157.31
2022-12-12T10:46:19.578Z,98158.38
2022-12-12T10:51:31.208Z,98162.53
2022-12-12T10:56:36.451Z,98166.44
2022-12-12T11:02:09.144Z,98161.69
2022-12-12T11:07:22.300Z,98166.19
2022-12-12T11:12:40.116Z,98160.47
2022-12-12T11:17:46.466Z,98165.22
2022-12-12T11:23:02.677Z,98157.91
2022-12-12T11:28:09.636Z,98162.88
2022-12-12T11:33:22.418Z,98159.25
2022-12-12T11:38:35.878Z,98162.00
2022-12-12T11:43:55.380Z,98173.56
2022-12-12T11:49:03.850Z,98172.28
2022-12-12T11:54:16.748Z,98167.16
2022-12-12T12:00:01.393Z,98170.38
2022-12-12T12:05:22.149Z,98168.47
2022-12-12T12:10:49.170Z,98171.03
2022-12-12T12:16:02.365Z,98166.81
2022-12-12T12:21:32.046Z,98175.31
2022-12-12T12:26:50.432Z,98171.19
2022-12-12T12:32:19.431Z,98165.25
2022-12-12T12:37:40.747Z,98169.38
2022-12-12T12:43:02.857Z,98171.03
2022-12-12T12:48:17.324Z,98175.00
2022-12-12T12:53:35.304Z,98177.69
2022-12-12T12:58:47.648Z,98177.69
2022-12-12T13:03:59.761Z,98175.72
2022-12-12T13:09:18.814Z,98179.25
2022-12-12T13:14:40.990Z,98182.81
2022-12-12T13:19:50.239Z,98189.78
2022-12-12T13:25:02.512Z,98190.16
2022-12-12T13:30:23.500Z,98188.41
2022-12-12T13:35:33.891Z,98193.81
2022-12-12T13:40:54.062Z,98204.94
2022-12-12T13:46:24.481Z,98210.91
2022-12-12T13:51:54.685Z,98220.53
2022-12-12T13:57:14.650Z,98218.09
2022-12-12T14:02:33.631Z,98225.63
2022-12-12T14:07:42.595Z,98230.19
2022-12-12T14:13:09.544Z,98237.09
2022-12-12T14:18:46.192Z,98232.81
2022-12-12T14:24:50.389Z,98245.53
2022-12-12T14:30:07.940Z,98249.41
2022-12-12T14:35:30.476Z,98252.97
2022-12-12T14:40:44.848Z,98263.25
2022-12-12T14:45:59.161Z,98266.72
2022-12-12T14:51:09.321Z,98267.31
2022-12-12T14:56:25.317Z,98273.94
2022-12-12T15:01:35.756Z,98266.50
2022-12-12T15:06:45.939Z,98271.56
2022-12-12T15:11:55.070Z,98284.09
2022-12-12T15:17:05.870Z,98293.84
2022-12-12T15:22:14.303Z,98289.78
2022-12-12T15:27:30.754Z,98304.88
2022-12-12T15:32:51.911Z,98306.94
2022-12-12T15:38:33.289Z,98308.97
2022-12-12T15:43:57.497Z,98322.81
2022-12-12T15:49:04.564Z,98313.66
2022-12-12T15:54:39.735Z,98301.66
2022-12-12T15:59:57.511Z,98332.34
2022-12-12T16:05:29.861Z,98321.47
2022-12-12T16:11:04.684Z,98330.41
2022-12-12T16:16:48.158Z,98336.41
2022-12-12T16:21:53.271Z,98340.06
2022-12-12T16:27:00.657Z,98340.13
2022-12-12T16:32:08.544Z,98346.72
2022-12-12T16:37:25.511Z,98358.63
2022-12-12T16:42:31.311Z,98356.00
2022-12-12T16:47:39.393Z,98357.59
2022-12-12T16:52:44.307Z,98347.97
2022-12-12T16:57:49.737Z,98358.38
2022-12-12T17:02:57.392Z,98361.66
2022-12-12T17:08:02.455Z,98370.50
2022-12-12T17:13:11.502Z,98372.19
2022-12-12T17:18:19.146Z,98370.63
2022-12-12T17:23:31.018Z,98378.44
2022-12-12T17:28:37.073Z,98382.28
2022-12-12T17:33:50.625Z,98379.09
2022-12-12T17:38:56.781Z,98384.44
2022-12-12T17:44:01.764Z,98380.56
2022-12-12T17:49:11.631Z,98386.94
2022-12-12T17:54:16.645Z,98388.59
2022-12-12T17:59:21.617Z,98394.16
2022-12-12T18:04:29.666Z,98389.63
2022-12-12T18:09:35.896Z,98403.09
2022-12-12T18:14:57.236Z,98399.03
2022-12-12T18:20:05.113Z,98401.84
2022-12-12T18:25:11.428Z,98406.63
2022-12-12T18:30:17.533Z,98402.00
2022-12-12T18:35:27.652Z,98405.28
2022-12-12T18:40:35.920Z,98411.84
2022-12-12T18:45:41.242Z,98407.31
2022-12-12T18:50:51.966Z,98408.84
2022-12-12T18:55:56.922Z,98417.84
2022-12-12T19:01:07.196Z,98410.72
2022-12-12T19:06:21.905Z,98422.38
2022-12-12T19:11:28.950Z,98428.03
2022-12-12T19:16:34.823Z,98423.25
2022-12-12T19:21:43.158Z,98407.19
2022-12-12T19:26:50.762Z,98427.22
2022-12-12T19:31:58.782Z,98419.06
2022-12-12T19:37:07.294Z,98406.03
2022-12-12T19:42:13.874Z,98413.47
2022-12-12T19:47:19.828Z,98422.72
2022-12-12T19:52:30.486Z,98414.91
2022-12-12T19:57:36.670Z,98423.47
2022-12-12T20:02:44.303Z,98424.44
2022-12-12T20:07:54.153Z,98431.19
2022-12-12T20:13:00.756Z,98428.28
2022-12-12T20:18:09.591Z,98439.47
2022-12-12T20:23:21.249Z,98443.69
2022-12-12T20:28:26.397Z,98435.97
2022-12-12T20:33:31.597Z,98436.34
2022-12-12T20:38:40.639Z,98436.69
2022-12-12T20:43:46.419Z,98438.38
2022-12-12T20:48:53.740Z,98429.09
2022-12-12T20:54:06.098Z,98416.59
2022-12-12T20:59:14.605Z,98425.75
2022-12-12T21:04:21.197Z,98432.19
2022-12-12T21:09:28.909Z,98442.78
2022-12-12T21:14:36.054Z,98449.59
2022-12-12T21:19:41.619Z,98452.88
2022-12-12T21:24:51.547Z,98451.91
2022-12-12T21:29:59.280Z,98445.63
2022-12-12T21:35:04.362Z,98453.63
2022-12-12T21:40:15.438Z,98455.66
2022-12-12T21:45:20.446Z,98458.59
2022-12-12T21:50:30.560Z,98460.53
2022-12-12T21:55:41.899Z,98461.34
2022-12-12T22:00:46.850Z,98462.34
2022-12-12T22:05:51.932Z,98466.09
2022-12-12T22:11:02.419Z,98460.44
2022-12-12T22:16:10.693Z,98457.53
2022-12-12T22:21:19.164Z,98464.84
2022-12-12T22:26:29.053Z,98454.09
2022-12-12T22:31:37.552Z,98450.22
2022-12-12T22:36:46.420Z,98450.22
2022-12-12T22:41:54.615Z,98448.81
2022-12-12T22:46:59.602Z,98455.94
2022-12-12T22:52:04.574Z,98450.78
2022-12-12T22:57:12.167Z,98452.31
2022-12-12T23:02:23.126Z,98441.66
2022-12-12T23:07:30.270Z,98435.41
2022-12-12T23:12:40.015Z,98436.53
2022-12-12T23:17:45.042Z,98447.59
2022-12-12T23:22:49.986Z,98447.56
2022-12-12T23:27:57.738Z,98449.28
2022-12-12T23:33:03.215Z,98440.41
2022-12-12T23:38:08.230Z,98438.09
2022-12-12T23:43:20.387Z,98433.31
2022-12-12T23:48:27.187Z,98426.53
2022-12-12T23:53:35.198Z,98437.44
2022-12-12T23:58:44.870Z,98437.38
